sensor_id;sensor_type;location;lat;lon;timestamp;temperature;humidity
65536;DHT22;52145;49.342;9.116;2022-10-28T00:02:09;12.30;99.90
65536;DHT22;52145;49.342;9.116;2022-10-28T00:04:35;12.30;99.90
65536;DHT22;52145;49.342;9.116;2022-10-28T00:07:00;12.20;99.90
65536;DHT22;52145;49.342;9.116;2022-10-28T00:09:26;12.20;99.90
65536;DHT22;52145;49.342;9.116;2022-10-28T00:11:51;12.20;99.90
65536;DHT22;52145;49.342;9.116;2022-10-28T00:14:17;12.20;99.90
65536;DHT22;52145;49.342;9.116;2022-10-28T00:16:42;12.20;99.90
65536;DHT22;52145;49.342;9.116;2022-10-28T00:19:10;12.20;99.90
65536;DHT22;52145;49.342;9.116;2022-10-28T00:21:37;12.20;99.90
65536;DHT22;52145;49.342;9.116;2022-10-28T00:24:04;12.20;99.90
65536;DHT22;52145;49.342;9.116;2022-10-28T00:26:31;12.20;99.90
65536;DHT22;52145;49.342;9.116;2022-10-28T00:28:59;12.20;99.90
65536;DHT22;52145;49.342;9.116;2022-10-28T00:31:27;12.20;99.90
65536;DHT22;52145;49.342;9.116;2022-10-28T00:33:53;12.10;99.90
65536;DHT22;52145;49.342;9.116;2022-10-28T00:36:21;12.10;99.90
65536;DHT22;52145;49.342;9.116;2022-10-28T00:38:49;12.10;99.90
65536;DHT22;52145;49.342;9.116;2022-10-28T00:41:24;12.00;99.90
65536;DHT22;52145;49.342;9.116;2022-10-28T00:43:54;12.10;99.90
65536;DHT22;52145;49.342;9.116;2022-10-28T00:46:24;12.10;99.90
65536;DHT22;52145;49.342;9.116;2022-10-28T00:49:04;12.10;99.90
65536;DHT22;52145;49.342;9.116;2022-10-28T00:51:32;12.20;99.90
65536;DHT22;52145;49.342;9.116;2022-10-28T00:54:00;12.30;99.90
65536;DHT22;52145;49.342;9.116;2022-10-28T00:56:27;12.20;99.90
65536;DHT22;52145;49.342;9.116;2022-10-28T00:58:55;12.20;99.90
65536;DHT22;52145;49.342;9.116;2022-10-28T01:01:23;12.20;99.90
65536;DHT22;52145;49.342;9.116;2022-10-28T01:03:49;12.10;99.90
65536;DHT22;52145;49.342;9.116;2022-10-28T01:06:15;12.00;99.90
65536;DHT22;52145;49.342;9.116;2022-10-28T01:08:41;12.00;99.90
65536;DHT22;52145;49.342;9.116;2022-10-28T01:11:19;12.00;99.90
65536;DHT22;52145;49.342;9.116;2022-10-28T01:14:01;12.00;99.90
65536;DHT22;52145;49.342;9.116;2022-10-28T01:22:19;11.80;99.90
65536;DHT22;52145;49.342;9.116;2022-10-28T01:30:09;11.80;99.90
65536;DHT22;52145;49.342;9.116;2022-10-28T01:32:46;11.70;99.90
65536;DHT22;52145;49.342;9.116;2022-10-28T01:35:28;11.70;99.90
65536;DHT22;52145;49.342;9.116;2022-10-28T01:40:34;11.70;99.90
65536;DHT22;52145;49.342;9.116;2022-10-28T01:43:25;11.60;99.90
65536;DHT22;52145;49.342;9.116;2022-10-28T01:45:59;11.60;99.90
65536;DHT22;52145;49.342;9.116;2022-10-28T01:48:40;11.60;99.90
65536;DHT22;52145;49.342;9.116;2022-10-28T01:51:34;11.70;99.90
65536;DHT22;52145;49.342;9.116;2022-10-28T01:54:02;11.70;99.90
65536;DHT22;52145;49.342;9.116;2022-10-28T01:56:33;11.70;99.90
65536;DHT22;52145;49.342;9.116;2022-10-28T01:59:02;11.70;99.90
65536;DHT22;52145;49.342;9.116;2022-10-28T02:01:30;11.70;99.90
65536;DHT22;52145;49.342;9.116;2022-10-28T02:03:55;11.70;99.90
65536;DHT22;52145;49.342;9.116;2022-10-28T02:06:24;11.70;99.90
65536;DHT22;52145;49.342;9.116;2022-10-28T02:15:06;11.60;99.90
65536;DHT22;52145;49.342;9.116;2022-10-28T02:18:19;11.60;99.90
65536;DHT22;52145;49.342;9.116;2022-10-28T02:21:00;11.60;99.90
65536;DHT22;52145;49.342;9.116;2022-10-28T02:26:11;11.70;99.90
65536;DHT22;52145;49.342;9.116;2022-10-28T02:28:49;11.80;99.90
65536;DHT22;52145;49.342;9.116;2022-10-28T02:31:28;11.60;99.90
65536;DHT22;52145;49.342;9.116;2022-10-28T02:34:00;11.70;99.90
65536;DHT22;52145;49.342;9.116;2022-10-28T02:36:30;11.70;99.90
65536;DHT22;52145;49.342;9.116;2022-10-28T02:38:59;11.80;99.90
65536;DHT22;52145;49.342;9.116;2022-10-28T02:44:03;11.80;99.90
65536;DHT22;52145;49.342;9.116;2022-10-28T02:46:32;11.80;99.90
65536;DHT22;52145;49.342;9.116;2022-10-28T02:49:05;11.80;99.90
65536;DHT22;52145;49.342;9.116;2022-10-28T02:51:38;11.90;99.90
65536;DHT22;52145;49.342;9.116;2022-10-28T02:54:11;11.90;99.90
65536;DHT22;52145;49.342;9.116;2022-10-28T02:56:41;12.00;99.90
65536;DHT22;52145;49.342;9.116;2022-10-28T02:59:10;12.00;99.90
65536;DHT22;52145;49.342;9.116;2022-10-28T03:01:36;11.90;99.90
65536;DHT22;52145;49.342;9.116;2022-10-28T03:04:02;12.00;99.90
65536;DHT22;52145;49.342;9.116;2022-10-28T03:06:28;12.30;99.90
65536;DHT22;52145;49.342;9.116;2022-10-28T03:08:54;12.50;99.90
65536;DHT22;52145;49.342;9.116;2022-10-28T03:11:19;12.60;99.90
65536;DHT22;52145;49.342;9.116;2022-10-28T03:13:45;12.60;99.90
65536;DHT22;52145;49.342;9.116;2022-10-28T03:16:10;12.70;99.90
65536;DHT22;52145;49.342;9.116;2022-10-28T03:18:36;12.80;99.90
65536;DHT22;52145;49.342;9.116;2022-10-28T03:21:01;12.70;99.90
65536;DHT22;52145;49.342;9.116;2022-10-28T03:23:27;12.50;99.90
65536;DHT22;52145;49.342;9.116;2022-10-28T03:25:52;12.30;99.90
65536;DHT22;52145;49.342;9.116;2022-10-28T03:28:18;12.20;99.90
65536;DHT22;52145;49.342;9.116;2022-10-28T03:30:43;12.30;99.90
65536;DHT22;52145;49.342;9.116;2022-10-28T03:33:09;12.20;99.90
65536;DHT22;52145;49.342;9.116;2022-10-28T03:35:34;12.00;99.90
65536;DHT22;52145;49.342;9.116;2022-10-28T03:38:00;12.00;99.90
65536;DHT22;52145;49.342;9.116;2022-10-28T03:40:26;12.00;99.90
65536;DHT22;52145;49.342;9.116;2022-10-28T03:42:51;12.10;99.90
65536;DHT22;52145;49.342;9.116;2022-10-28T03:45:17;12.10;99.90
65536;DHT22;52145;49.342;9.116;2022-10-28T03:47:42;12.20;99.90
65536;DHT22;52145;49.342;9.116;2022-10-28T03:50:08;12.10;99.90
65536;DHT22;52145;49.342;9.116;2022-10-28T03:52:34;12.00;99.90
65536;DHT22;52145;49.342;9.116;2022-10-28T03:54:59;12.00;99.90
65536;DHT22;52145;49.342;9.116;2022-10-28T03:57:25;12.10;99.90
65536;DHT22;52145;49.342;9.116;2022-10-28T03:59:53;12.10;99.90
65536;DHT22;52145;49.342;9.116;2022-10-28T04:02:19;12.10;99.90
65536;DHT22;52145;49.342;9.116;2022-10-28T04:04:44;12.10;99.90
65536;DHT22;52145;49.342;9.116;2022-10-28T04:07:10;12.10;99.90
65536;DHT22;52145;49.342;9.116;2022-10-28T04:09:35;12.10;99.90
65536;DHT22;52145;49.342;9.116;2022-10-28T04:12:01;12.20;99.90
65536;DHT22;52145;49.342;9.116;2022-10-28T04:14:26;12.10;99.90
65536;DHT22;52145;49.342;9.116;2022-10-28T04:16:52;12.10;99.90
65536;DHT22;52145;49.342;9.116;2022-10-28T04:19:17;12.10;99.90
65536;DHT22;52145;49.342;9.116;2022-10-28T04:21:43;12.10;99.90
65536;DHT22;52145;49.342;9.116;2022-10-28T04:24:08;12.20;99.90
65536;DHT22;52145;49.342;9.116;2022-10-28T04:26:34;12.20;99.90
65536;DHT22;52145;49.342;9.116;2022-10-28T04:28:59;12.30;99.90
65536;DHT22;52145;49.342;9.116;2022-10-28T04:31:25;12.30;99.90
65536;DHT22;52145;49.342;9.116;2022-10-28T04:33:50;12.30;99.90
65536;DHT22;52145;49.342;9.116;2022-10-28T04:36:16;12.20;99.90
65536;DHT22;52145;49.342;9.116;2022-10-28T04:38:41;12.30;99.90
65536;DHT22;52145;49.342;9.116;2022-10-28T04:41:11;12.40;99.90
65536;DHT22;52145;49.342;9.116;2022-10-28T04:43:37;12.40;99.90
65536;DHT22;52145;49.342;9.116;2022-10-28T04:46:03;12.40;99.90
65536;DHT22;52145;49.342;9.116;2022-10-28T04:48:33;12.40;99.90
65536;DHT22;52145;49.342;9.116;2022-10-28T04:50:59;12.30;99.90
65536;DHT22;52145;49.342;9.116;2022-10-28T04:53:25;12.30;99.90
65536;DHT22;52145;49.342;9.116;2022-10-28T04:55:50;12.40;99.90
65536;DHT22;52145;49.342;9.116;2022-10-28T04:58:20;12.30;99.90
65536;DHT22;52145;49.342;9.116;2022-10-28T05:00:45;12.30;99.90
65536;DHT22;52145;49.342;9.116;2022-10-28T05:03:11;12.30;99.90
65536;DHT22;52145;49.342;9.116;2022-10-28T05:05:36;12.40;99.90
65536;DHT22;52145;49.342;9.116;2022-10-28T05:08:02;12.40;99.90
65536;DHT22;52145;49.342;9.116;2022-10-28T05:10:28;12.40;99.90
65536;DHT22;52145;49.342;9.116;2022-10-28T05:12:54;12.30;99.90
65536;DHT22;52145;49.342;9.116;2022-10-28T05:15:20;12.30;99.90
65536;DHT22;52145;49.342;9.116;2022-10-28T05:17:46;12.30;99.90
65536;DHT22;52145;49.342;9.116;2022-10-28T05:20:13;12.20;99.90
65536;DHT22;52145;49.342;9.116;2022-10-28T05:22:45;12.20;99.90
65536;DHT22;52145;49.342;9.116;2022-10-28T05:25:11;12.10;99.90
65536;DHT22;52145;49.342;9.116;2022-10-28T05:27:36;12.00;99.90
65536;DHT22;52145;49.342;9.116;2022-10-28T05:30:02;12.00;99.90
65536;DHT22;52145;49.342;9.116;2022-10-28T05:32:28;12.00;99.90
65536;DHT22;52145;49.342;9.116;2022-10-28T05:34:53;12.00;99.90
65536;DHT22;52145;49.342;9.116;2022-10-28T05:37:19;12.00;99.90
65536;DHT22;52145;49.342;9.116;2022-10-28T05:39:44;11.90;99.90
65536;DHT22;52145;49.342;9.116;2022-10-28T05:42:10;12.00;99.90
65536;DHT22;52145;49.342;9.116;2022-10-28T05:44:36;12.00;99.90
65536;DHT22;52145;49.342;9.116;2022-10-28T05:47:01;12.00;99.90
65536;DHT22;52145;49.342;9.116;2022-10-28T05:49:27;12.00;99.90
65536;DHT22;52145;49.342;9.116;2022-10-28T05:51:52;11.90;99.90
65536;DHT22;52145;49.342;9.116;2022-10-28T05:54:18;11.90;99.90
65536;DHT22;52145;49.342;9.116;2022-10-28T05:56:43;11.80;99.90
65536;DHT22;52145;49.342;9.116;2022-10-28T05:59:09;11.70;99.90
65536;DHT22;52145;49.342;9.116;2022-10-28T06:01:34;11.70;99.90
65536;DHT22;52145;49.342;9.116;2022-10-28T06:04:00;11.70;99.90
65536;DHT22;52145;49.342;9.116;2022-10-28T06:06:27;11.70;99.90
65536;DHT22;52145;49.342;9.116;2022-10-28T06:08:52;11.70;99.90
65536;DHT22;52145;49.342;9.116;2022-10-28T06:11:18;11.80;99.90
65536;DHT22;52145;49.342;9.116;2022-10-28T06:13:43;11.80;99.90
65536;DHT22;52145;49.342;9.116;2022-10-28T06:16:09;11.80;99.90
65536;DHT22;52145;49.342;9.116;2022-10-28T06:18:34;11.80;99.90
65536;DHT22;52145;49.342;9.116;2022-10-28T06:21:00;11.80;99.90
65536;DHT22;52145;49.342;9.116;2022-10-28T06:23:26;11.70;99.90
65536;DHT22;52145;49.342;9.116;2022-10-28T06:26:00;11.50;99.90
65536;DHT22;52145;49.342;9.116;2022-10-28T06:28:26;11.50;99.90
65536;DHT22;52145;49.342;9.116;2022-10-28T06:30:52;11.50;99.90
65536;DHT22;52145;49.342;9.116;2022-10-28T06:33:18;11.60;99.90
65536;DHT22;52145;49.342;9.116;2022-10-28T06:35:43;11.60;99.90
65536;DHT22;52145;49.342;9.116;2022-10-28T06:38:10;11.70;99.90
65536;DHT22;52145;49.342;9.116;2022-10-28T06:40:35;11.80;99.90
65536;DHT22;52145;49.342;9.116;2022-10-28T06:43:03;11.90;99.90
65536;DHT22;52145;49.342;9.116;2022-10-28T06:45:31;11.90;99.90
65536;DHT22;52145;49.342;9.116;2022-10-28T06:47:58;12.00;99.90
65536;DHT22;52145;49.342;9.116;2022-10-28T06:50:24;12.10;99.90
65536;DHT22;52145;49.342;9.116;2022-10-28T06:52:50;12.10;99.90
65536;DHT22;52145;49.342;9.116;2022-10-28T06:55:15;12.20;99.90
65536;DHT22;52145;49.342;9.116;2022-10-28T06:57:41;12.30;99.90
65536;DHT22;52145;49.342;9.116;2022-10-28T07:00:07;12.40;99.90
65536;DHT22;52145;49.342;9.116;2022-10-28T07:02:32;12.50;99.90
65536;DHT22;52145;49.342;9.116;2022-10-28T07:04:58;12.50;99.90
65536;DHT22;52145;49.342;9.116;2022-10-28T07:07:23;12.60;99.90
65536;DHT22;52145;49.342;9.116;2022-10-28T07:09:49;12.60;99.90
65536;DHT22;52145;49.342;9.116;2022-10-28T07:12:15;12.60;99.90
65536;DHT22;52145;49.342;9.116;2022-10-28T07:14:40;12.70;99.90
65536;DHT22;52145;49.342;9.116;2022-10-28T07:17:06;12.60;99.90
65536;DHT22;52145;49.342;9.116;2022-10-28T07:19:31;12.60;99.90
65536;DHT22;52145;49.342;9.116;2022-10-28T07:21:57;12.70;99.90
65536;DHT22;52145;49.342;9.116;2022-10-28T07:24:22;12.80;99.90
65536;DHT22;52145;49.342;9.116;2022-10-28T07:26:48;12.90;99.90
65536;DHT22;52145;49.342;9.116;2022-10-28T07:29:14;13.00;99.90
65536;DHT22;52145;49.342;9.116;2022-10-28T07:31:40;13.00;99.90
65536;DHT22;52145;49.342;9.116;2022-10-28T07:34:05;13.00;99.90
65536;DHT22;52145;49.342;9.116;2022-10-28T07:36:31;13.20;99.90
65536;DHT22;52145;49.342;9.116;2022-10-28T07:38:56;13.20;99.90
65536;DHT22;52145;49.342;9.116;2022-10-28T07:41:22;13.50;99.90
65536;DHT22;52145;49.342;9.116;2022-10-28T07:43:48;13.60;99.90
65536;DHT22;52145;49.342;9.116;2022-10-28T07:46:14;13.70;99.90
65536;DHT22;52145;49.342;9.116;2022-10-28T07:48:40;13.90;99.90
65536;DHT22;52145;49.342;9.116;2022-10-28T07:51:07;13.90;99.90
65536;DHT22;52145;49.342;9.116;2022-10-28T07:53:33;14.00;99.90
65536;DHT22;52145;49.342;9.116;2022-10-28T07:56:04;14.00;99.90
65536;DHT22;52145;49.342;9.116;2022-10-28T07:58:30;14.10;99.90
65536;DHT22;52145;49.342;9.116;2022-10-28T08:00:58;14.30;99.90
65536;DHT22;52145;49.342;9.116;2022-10-28T08:03:25;14.50;99.90
65536;DHT22;52145;49.342;9.116;2022-10-28T08:06:02;14.40;99.90
65536;DHT22;52145;49.342;9.116;2022-10-28T08:08:27;14.40;99.90
65536;DHT22;52145;49.342;9.116;2022-10-28T08:10:53;14.60;99.90
65536;DHT22;52145;49.342;9.116;2022-10-28T08:13:19;14.70;99.90
65536;DHT22;52145;49.342;9.116;2022-10-28T08:15:51;14.70;99.90
65536;DHT22;52145;49.342;9.116;2022-10-28T08:18:17;14.80;99.90
65536;DHT22;52145;49.342;9.116;2022-10-28T08:20:42;15.00;99.90
65536;DHT22;52145;49.342;9.116;2022-10-28T08:23:09;15.20;99.90
65536;DHT22;52145;49.342;9.116;2022-10-28T08:25:35;15.10;99.90
65536;DHT22;52145;49.342;9.116;2022-10-28T08:28:01;14.90;99.90
65536;DHT22;52145;49.342;9.116;2022-10-28T08:30:26;14.90;99.90
65536;DHT22;52145;49.342;9.116;2022-10-28T08:32:54;14.70;99.90
65536;DHT22;52145;49.342;9.116;2022-10-28T08:35:20;14.60;99.90
65536;DHT22;52145;49.342;9.116;2022-10-28T08:37:51;14.70;99.90
65536;DHT22;52145;49.342;9.116;2022-10-28T08:40:19;14.60;99.90
65536;DHT22;52145;49.342;9.116;2022-10-28T08:42:48;14.70;99.90
65536;DHT22;52145;49.342;9.116;2022-10-28T08:47:52;15.10;99.90
65536;DHT22;52145;49.342;9.116;2022-10-28T08:50:23;14.90;99.90
65536;DHT22;52145;49.342;9.116;2022-10-28T08:55:32;15.10;99.90
65536;DHT22;52145;49.342;9.116;2022-10-28T08:58:23;15.20;99.90
65536;DHT22;52145;49.342;9.116;2022-10-28T09:00:55;15.50;99.90
65536;DHT22;52145;49.342;9.116;2022-10-28T09:03:32;15.70;99.90
65536;DHT22;52145;49.342;9.116;2022-10-28T09:06:05;15.80;99.90
65536;DHT22;52145;49.342;9.116;2022-10-28T09:08:42;15.90;99.90
65536;DHT22;52145;49.342;9.116;2022-10-28T09:13:59;15.80;99.90
65536;DHT22;52145;49.342;9.116;2022-10-28T09:16:41;15.80;99.90
65536;DHT22;52145;49.342;9.116;2022-10-28T09:19:19;15.90;99.90
65536;DHT22;52145;49.342;9.116;2022-10-28T09:21:49;16.20;99.90
65536;DHT22;52145;49.342;9.116;2022-10-28T09:24:28;16.40;99.90
65536;DHT22;52145;49.342;9.116;2022-10-28T09:32:44;17.20;99.90
65536;DHT22;52145;49.342;9.116;2022-10-28T09:35:14;17.00;99.90
65536;DHT22;52145;49.342;9.116;2022-10-28T09:37:46;17.60;99.90
65536;DHT22;52145;49.342;9.116;2022-10-28T09:40:28;17.70;99.90
65536;DHT22;52145;49.342;9.116;2022-10-28T09:45:29;18.00;99.90
65536;DHT22;52145;49.342;9.116;2022-10-28T09:48:00;18.40;99.90
65536;DHT22;52145;49.342;9.116;2022-10-28T09:50:29;18.60;99.90
65536;DHT22;52145;49.342;9.116;2022-10-28T09:53:03;18.20;99.90
65536;DHT22;52145;49.342;9.116;2022-10-28T09:55:33;17.90;99.90
65536;DHT22;52145;49.342;9.116;2022-10-28T09:57:59;17.90;99.90
65536;DHT22;52145;49.342;9.116;2022-10-28T10:00:26;17.90;99.90
65536;DHT22;52145;49.342;9.116;2022-10-28T10:02:55;17.90;99.90
65536;DHT22;52145;49.342;9.116;2022-10-28T10:05:22;18.20;99.90
65536;DHT22;52145;49.342;9.116;2022-10-28T10:07:56;18.20;99.90
65536;DHT22;52145;49.342;9.116;2022-10-28T10:10:26;17.60;99.90
65536;DHT22;52145;49.342;9.116;2022-10-28T10:12:56;17.70;99.90
65536;DHT22;52145;49.342;9.116;2022-10-28T10:15:43;17.40;99.90
65536;DHT22;52145;49.342;9.116;2022-10-28T10:18:18;17.40;99.90
65536;DHT22;52145;49.342;9.116;2022-10-28T10:20:48;17.40;99.90
65536;DHT22;52145;49.342;9.116;2022-10-28T10:23:22;17.50;99.90
65536;DHT22;52145;49.342;9.116;2022-10-28T10:25:57;17.60;99.90
65536;DHT22;52145;49.342;9.116;2022-10-28T10:28:24;17.60;99.90
65536;DHT22;52145;49.342;9.116;2022-10-28T10:30:53;17.40;99.90
65536;DHT22;52145;49.342;9.116;2022-10-28T10:36:03;17.40;99.90
65536;DHT22;52145;49.342;9.116;2022-10-28T10:38:30;17.60;99.90
65536;DHT22;52145;49.342;9.116;2022-10-28T10:40:56;17.80;99.90
65536;DHT22;52145;49.342;9.116;2022-10-28T10:43:28;18.40;99.90
65536;DHT22;52145;49.342;9.116;2022-10-28T10:48:24;19.30;99.90
65536;DHT22;52145;49.342;9.116;2022-10-28T10:50:50;19.20;99.90
65536;DHT22;52145;49.342;9.116;2022-10-28T10:53:29;19.60;99.90
65536;DHT22;52145;49.342;9.116;2022-10-28T10:55:59;19.40;99.90
65536;DHT22;52145;49.342;9.116;2022-10-28T10:58:29;19.50;99.90
65536;DHT22;52145;49.342;9.116;2022-10-28T11:00:57;19.50;99.90
65536;DHT22;52145;49.342;9.116;2022-10-28T11:03:31;19.70;99.90
65536;DHT22;52145;49.342;9.116;2022-10-28T11:05:59;19.80;99.90
65536;DHT22;52145;49.342;9.116;2022-10-28T11:08:41;19.90;99.90
65536;DHT22;52145;49.342;9.116;2022-10-28T11:11:12;20.10;99.90
65536;DHT22;52145;49.342;9.116;2022-10-28T11:13:38;20.30;99.90
65536;DHT22;52145;49.342;9.116;2022-10-28T11:16:14;20.10;99.90
65536;DHT22;52145;49.342;9.116;2022-10-28T11:18:45;20.20;99.90
65536;DHT22;52145;49.342;9.116;2022-10-28T11:26:34;19.80;99.90
65536;DHT22;52145;49.342;9.116;2022-10-28T11:29:10;20.20;99.90
65536;DHT22;52145;49.342;9.116;2022-10-28T11:37:37;21.40;99.90
65536;DHT22;52145;49.342;9.116;2022-10-28T11:40:28;22.00;99.60
65536;DHT22;52145;49.342;9.116;2022-10-28T11:46:04;26.00;92.50
65536;DHT22;52145;49.342;9.116;2022-10-28T11:54:20;25.20;91.40
65536;DHT22;52145;49.342;9.116;2022-10-28T11:56:50;25.90;91.90
65536;DHT22;52145;49.342;9.116;2022-10-28T12:05:03;24.60;91.80
65536;DHT22;52145;49.342;9.116;2022-10-28T12:07:43;24.30;93.00
65536;DHT22;52145;49.342;9.116;2022-10-28T12:10:31;23.70;93.20
65536;DHT22;52145;49.342;9.116;2022-10-28T12:13:19;23.30;93.90
65536;DHT22;52145;49.342;9.116;2022-10-28T12:23:56;24.30;92.80
65536;DHT22;52145;49.342;9.116;2022-10-28T12:26:31;24.70;92.80
65536;DHT22;52145;49.342;9.116;2022-10-28T12:29:00;24.90;92.30
65536;DHT22;52145;49.342;9.116;2022-10-28T12:31:43;25.80;91.10
65536;DHT22;52145;49.342;9.116;2022-10-28T12:34:14;27.10;87.70
65536;DHT22;52145;49.342;9.116;2022-10-28T12:36:49;27.50;85.00
65536;DHT22;52145;49.342;9.116;2022-10-28T12:39:21;27.10;85.10
65536;DHT22;52145;49.342;9.116;2022-10-28T12:41:59;28.00;84.70
65536;DHT22;52145;49.342;9.116;2022-10-28T12:44:27;28.60;83.90
65536;DHT22;52145;49.342;9.116;2022-10-28T12:47:17;28.40;82.70
65536;DHT22;52145;49.342;9.116;2022-10-28T12:55:51;28.80;81.20
65536;DHT22;52145;49.342;9.116;2022-10-28T12:58:30;29.90;79.80
65536;DHT22;52145;49.342;9.116;2022-10-28T13:01:06;30.50;77.10
65536;DHT22;52145;49.342;9.116;2022-10-28T13:03:32;29.40;77.90
65536;DHT22;52145;49.342;9.116;2022-10-28T13:12:20;30.30;78.90
65536;DHT22;52145;49.342;9.116;2022-10-28T13:20:37;29.40;80.00
65536;DHT22;52145;49.342;9.116;2022-10-28T13:23:19;28.40;81.30
65536;DHT22;52145;49.342;9.116;2022-10-28T13:25:56;27.20;84.00
65536;DHT22;52145;49.342;9.116;2022-10-28T13:28:28;27.10;84.60
65536;DHT22;52145;49.342;9.116;2022-10-28T13:30:57;27.10;85.10
65536;DHT22;52145;49.342;9.116;2022-10-28T13:33:25;27.50;85.50
65536;DHT22;52145;49.342;9.116;2022-10-28T13:35:53;27.00;86.60
65536;DHT22;52145;49.342;9.116;2022-10-28T13:38:23;26.50;87.00
65536;DHT22;52145;49.342;9.116;2022-10-28T13:49:34;25.40;90.10
65536;DHT22;52145;49.342;9.116;2022-10-28T13:59:51;25.00;91.70
65536;DHT22;52145;49.342;9.116;2022-10-28T14:02:21;25.00;93.00
65536;DHT22;52145;49.342;9.116;2022-10-28T14:04:56;24.60;93.80
65536;DHT22;52145;49.342;9.116;2022-10-28T14:07:25;24.30;94.10
65536;DHT22;52145;49.342;9.116;2022-10-28T14:09:55;24.10;93.50
65536;DHT22;52145;49.342;9.116;2022-10-28T14:12:29;24.00;94.60
65536;DHT22;52145;49.342;9.116;2022-10-28T14:17:38;23.80;95.40
65536;DHT22;52145;49.342;9.116;2022-10-28T14:20:18;23.40;96.70
65536;DHT22;52145;49.342;9.116;2022-10-28T14:22:45;23.10;97.00
65536;DHT22;52145;49.342;9.116;2022-10-28T14:46:39;22.10;99.90
65536;DHT22;52145;49.342;9.116;2022-10-28T14:49:29;21.90;99.90
65536;DHT22;52145;49.342;9.116;2022-10-28T14:51:57;21.80;99.90
65536;DHT22;52145;49.342;9.116;2022-10-28T14:54:46;21.80;99.90
65536;DHT22;52145;49.342;9.116;2022-10-28T14:57:12;21.60;99.90
65536;DHT22;52145;49.342;9.116;2022-10-28T14:59:42;21.60;99.90
65536;DHT22;52145;49.342;9.116;2022-10-28T15:02:20;21.50;99.90
65536;DHT22;52145;49.342;9.116;2022-10-28T15:04:56;21.30;99.90
65536;DHT22;52145;49.342;9.116;2022-10-28T15:07:22;21.30;99.90
65536;DHT22;52145;49.342;9.116;2022-10-28T15:09:48;21.10;99.90
65536;DHT22;52145;49.342;9.116;2022-10-28T15:12:19;21.20;99.90
65536;DHT22;52145;49.342;9.116;2022-10-28T15:14:50;21.20;99.90
65536;DHT22;52145;49.342;9.116;2022-10-28T15:17:17;21.00;99.90
65536;DHT22;52145;49.342;9.116;2022-10-28T15:19:52;20.90;99.90
65536;DHT22;52145;49.342;9.116;2022-10-28T15:25:03;20.90;99.90
65536;DHT22;52145;49.342;9.116;2022-10-28T15:27:33;20.80;99.90
65536;DHT22;52145;49.342;9.116;2022-10-28T15:29:59;20.70;99.90
65536;DHT22;52145;49.342;9.116;2022-10-28T15:32:27;20.40;99.90
65536;DHT22;52145;49.342;9.116;2022-10-28T15:34:54;20.20;99.90
65536;DHT22;52145;49.342;9.116;2022-10-28T15:37:38;20.30;99.90
65536;DHT22;52145;49.342;9.116;2022-10-28T15:40:18;20.30;99.90
65536;DHT22;52145;49.342;9.116;2022-10-28T15:42:52;20.20;99.90
65536;DHT22;52145;49.342;9.116;2022-10-28T15:45:27;19.90;99.90
65536;DHT22;52145;49.342;9.116;2022-10-28T15:47:53;19.90;99.90
65536;DHT22;52145;49.342;9.116;2022-10-28T15:50:35;19.80;99.90
65536;DHT22;52145;49.342;9.116;2022-10-28T15:55:37;19.50;99.90
65536;DHT22;52145;49.342;9.116;2022-10-28T15:58:29;19.30;99.90
65536;DHT22;52145;49.342;9.116;2022-10-28T16:00:57;19.20;99.90
65536;DHT22;52145;49.342;9.116;2022-10-28T16:03:25;19.10;99.90
65536;DHT22;52145;49.342;9.116;2022-10-28T16:05:56;19.00;99.90
65536;DHT22;52145;49.342;9.116;2022-10-28T16:08:24;18.90;99.90
65536;DHT22;52145;49.342;9.116;2022-10-28T16:11:03;18.80;99.90
65536;DHT22;52145;49.342;9.116;2022-10-28T16:13:37;18.80;99.90
65536;DHT22;52145;49.342;9.116;2022-10-28T16:16:06;18.60;99.90
65536;DHT22;52145;49.342;9.116;2022-10-28T16:18:38;18.50;99.90
65536;DHT22;52145;49.342;9.116;2022-10-28T16:21:05;18.30;99.90
65536;DHT22;52145;49.342;9.116;2022-10-28T16:23:37;18.30;99.90
65536;DHT22;52145;49.342;9.116;2022-10-28T16:26:04;18.10;99.90
65536;DHT22;52145;49.342;9.116;2022-10-28T16:28:30;18.00;99.90
65536;DHT22;52145;49.342;9.116;2022-10-28T16:30:58;18.00;99.90
65536;DHT22;52145;49.342;9.116;2022-10-28T16:33:36;17.90;99.90
65536;DHT22;52145;49.342;9.116;2022-10-28T16:36:02;17.80;99.90
65536;DHT22;52145;49.342;9.116;2022-10-28T16:38:29;17.70;99.90
65536;DHT22;52145;49.342;9.116;2022-10-28T16:40:56;17.50;99.90
65536;DHT22;52145;49.342;9.116;2022-10-28T16:43:24;17.40;99.90
65536;DHT22;52145;49.342;9.116;2022-10-28T16:45:51;17.30;99.90
65536;DHT22;52145;49.342;9.116;2022-10-28T16:48:18;17.20;99.90
65536;DHT22;52145;49.342;9.116;2022-10-28T16:51:02;17.20;99.90
65536;DHT22;52145;49.342;9.116;2022-10-28T16:53:28;17.10;99.90
65536;DHT22;52145;49.342;9.116;2022-10-28T16:55:54;17.00;99.90
65536;DHT22;52145;49.342;9.116;2022-10-28T16:58:24;16.90;99.90
65536;DHT22;52145;49.342;9.116;2022-10-28T17:00:51;16.80;99.90
65536;DHT22;52145;49.342;9.116;2022-10-28T17:03:17;16.70;99.90
65536;DHT22;52145;49.342;9.116;2022-10-28T17:05:42;16.60;99.90
65536;DHT22;52145;49.342;9.116;2022-10-28T17:08:09;16.50;99.90
65536;DHT22;52145;49.342;9.116;2022-10-28T17:10:35;16.50;99.90
65536;DHT22;52145;49.342;9.116;2022-10-28T17:13:01;16.40;99.90
65536;DHT22;52145;49.342;9.116;2022-10-28T17:15:27;16.30;99.90
65536;DHT22;52145;49.342;9.116;2022-10-28T17:17:53;16.20;99.90
65536;DHT22;52145;49.342;9.116;2022-10-28T17:20:19;16.20;99.90
65536;DHT22;52145;49.342;9.116;2022-10-28T17:22:45;16.10;99.90
65536;DHT22;52145;49.342;9.116;2022-10-28T17:25:10;16.20;99.90
65536;DHT22;52145;49.342;9.116;2022-10-28T17:27:36;16.10;99.90
65536;DHT22;52145;49.342;9.116;2022-10-28T17:30:02;16.10;99.90
65536;DHT22;52145;49.342;9.116;2022-10-28T17:32:28;16.00;99.90
65536;DHT22;52145;49.342;9.116;2022-10-28T17:34:54;16.00;99.90
65536;DHT22;52145;49.342;9.116;2022-10-28T17:37:19;15.80;99.90
65536;DHT22;52145;49.342;9.116;2022-10-28T17:39:45;15.80;99.90
65536;DHT22;52145;49.342;9.116;2022-10-28T17:42:10;15.70;99.90
65536;DHT22;52145;49.342;9.116;2022-10-28T17:44:36;15.70;99.90
65536;DHT22;52145;49.342;9.116;2022-10-28T17:47:02;15.70;99.90
65536;DHT22;52145;49.342;9.116;2022-10-28T17:49:27;15.60;99.90
65536;DHT22;52145;49.342;9.116;2022-10-28T17:51:54;15.60;99.90
65536;DHT22;52145;49.342;9.116;2022-10-28T17:54:19;15.60;99.90
65536;DHT22;52145;49.342;9.116;2022-10-28T17:56:45;15.60;99.90
65536;DHT22;52145;49.342;9.116;2022-10-28T17:59:12;15.60;99.90
65536;DHT22;52145;49.342;9.116;2022-10-28T18:01:37;15.70;99.90
65536;DHT22;52145;49.342;9.116;2022-10-28T18:04:03;15.90;99.90
65536;DHT22;52145;49.342;9.116;2022-10-28T18:06:29;15.80;99.90
65536;DHT22;52145;49.342;9.116;2022-10-28T18:08:55;15.80;99.90